Time;durP1;ratioP1;P1;durP2;ratioP2;P2;SDS_P1;SDS_P2;PMS_P1;PMS_P2;Temp;Humidity;BMP_temperature;BMP_pressure;BME280_temperature;BME280_humidity;BME280_pressure;Samples;Min_cycle;Max_cycle;Signal;HPM_P1;HPM_P2
2022/04/05 00:00:28;;;;;;;8.97;1.80;;;7.00;99.90;;;;;;5072138;28;20229;-46
2022/04/05 00:02:55;;;;;;;10.13;2.07;;;7.00;99.90;;;;;;5089818;27;20210;-44
2022/04/05 00:05:23;;;;;;;6.33;1.67;;;7.00;99.90;;;;;;5073687;27;20220;-45
2022/04/05 00:07:51;;;;;;;8.33;1.80;;;6.90;99.90;;;;;;5090678;28;21249;-45
2022/04/05 00:10:18;;;;;;;10.97;1.80;;;6.90;99.90;;;;;;5082839;27;20327;-45
2022/04/05 00:12:45;;;;;;;8.80;2.33;;;6.90;99.90;;;;;;5070215;27;20203;-44
2022/04/05 00:15:12;;;;;;;7.20;1.37;;;6.80;99.90;;;;;;5068198;27;20245;-44
2022/04/05 00:17:38;;;;;;;6.40;1.53;;;6.80;99.90;;;;;;5085167;28;20361;-45
2022/04/05 00:20:07;;;;;;;8.87;1.70;;;6.70;99.90;;;;;;5077494;28;20350;-44
2022/04/05 00:22:34;;;;;;;5.37;1.53;;;6.70;99.90;;;;;;5086939;28;20508;-45
2022/04/05 00:25:03;;;;;;;7.63;1.53;;;6.70;99.90;;;;;;5085874;28;20233;-44
2022/04/05 00:27:30;;;;;;;8.50;1.70;;;6.70;99.90;;;;;;5087335;27;20468;-45
2022/04/05 00:29:59;;;;;;;10.07;1.80;;;6.60;99.90;;;;;;5067382;27;20449;-43
2022/04/05 00:32:26;;;;;;;6.47;1.60;;;6.60;99.90;;;;;;5069477;27;20620;-45
2022/04/05 00:34:53;;;;;;;4.70;1.47;;;6.60;99.90;;;;;;5084519;27;20234;-45
2022/04/05 00:37:19;;;;;;;10.70;2.13;;;6.70;99.90;;;;;;5077841;27;20546;-45
2022/04/05 00:39:48;;;;;;;12.53;1.50;;;6.70;99.90;;;;;;5087267;27;20213;-45
2022/04/05 00:42:16;;;;;;;6.03;1.40;;;6.70;99.90;;;;;;5083833;27;20468;-45
2022/04/05 00:44:43;;;;;;;6.93;1.53;;;6.70;99.90;;;;;;5065405;28;20248;-44
2022/04/05 00:47:16;;;;;;;10.10;2.30;;;6.70;99.90;;;;;;5071108;27;20282;-45
2022/04/05 00:49:44;;;;;;;10.37;1.83;;;6.70;99.90;;;;;;5085643;28;20626;-45
2022/04/05 00:52:12;;;;;;;9.90;2.17;;;6.70;99.90;;;;;;5075209;28;20210;-45
2022/04/05 00:54:40;;;;;;;11.10;2.40;;;6.70;99.90;;;;;;5079554;27;20341;-45
2022/04/05 00:57:11;;;;;;;6.37;1.70;;;6.70;99.90;;;;;;5076659;27;20634;-46
2022/04/05 00:59:43;;;;;;;6.57;1.90;;;6.70;99.90;;;;;;5071660;28;20220;-45
2022/04/05 01:02:12;;;;;;;7.40;1.83;;;6.70;99.90;;;;;;5071030;28;20303;-45
2022/04/05 01:04:42;;;;;;;5.67;1.73;;;6.70;99.90;;;;;;5093858;27;20223;-45
2022/04/05 01:07:12;;;;;;;13.33;2.57;;;6.80;99.90;;;;;;5075036;27;21118;-45
2022/04/05 01:09:39;;;;;;;14.10;2.53;;;6.80;99.90;;;;;;5092343;27;20211;-45
2022/04/05 01:12:08;;;;;;;7.53;1.93;;;6.80;99.90;;;;;;5078959;27;20204;-46
2022/04/05 01:14:35;;;;;;;9.43;1.57;;;6.80;99.90;;;;;;5075568;28;20228;-45
2022/04/05 01:17:04;;;;;;;8.97;1.73;;;6.80;99.90;;;;;;5059173;27;20215;-46
2022/04/05 01:19:32;;;;;;;6.63;2.10;;;6.80;99.90;;;;;;5077962;28;20200;-45
2022/04/05 01:21:59;;;;;;;8.13;1.90;;;6.80;99.90;;;;;;5080023;28;20311;-46
2022/04/05 01:24:28;;;;;;;9.27;2.03;;;6.80;99.90;;;;;;5085660;27;20225;-45
2022/04/05 01:26:57;;;;;;;10.83;2.53;;;6.80;99.90;;;;;;5078315;28;20209;-45
2022/04/05 01:29:26;;;;;;;12.03;2.30;;;6.80;99.90;;;;;;5091199;27;20492;-45
2022/04/05 01:31:56;;;;;;;6.27;2.03;;;6.80;99.90;;;;;;5071254;27;20203;-46
2022/04/05 01:34:25;;;;;;;19.20;2.33;;;6.80;99.90;;;;;;5076288;27;20484;-45
2022/04/05 01:36:53;;;;;;;11.50;1.97;;;6.80;99.90;;;;;;5084230;28;20203;-46
2022/04/05 01:39:22;;;;;;;4.47;1.17;;;6.70;99.90;;;;;;5079779;27;20208;-45
2022/04/05 01:41:53;;;;;;;6.70;1.63;;;6.60;99.90;;;;;;5079275;27;20219;-46
2022/04/05 01:44:21;;;;;;;4.50;1.20;;;6.40;99.90;;;;;;5076507;28;20223;-45
2022/04/05 01:46:48;;;;;;;7.17;1.33;;;6.50;99.90;;;;;;5089152;27;20451;-46
2022/04/05 01:49:15;;;;;;;2.90;1.00;;;6.40;99.90;;;;;;5060374;27;20222;-46
2022/04/05 01:51:44;;;;;;;3.57;1.03;;;6.30;99.90;;;;;;5083395;28;20473;-45
2022/04/05 01:54:13;;;;;;;8.03;1.53;;;6.30;99.90;;;;;;5066634;27;20496;-46
2022/04/05 01:56:43;;;;;;;7.63;1.07;;;6.30;99.90;;;;;;5081658;28;20415;-44
2022/04/05 01:59:11;;;;;;;5.10;1.00;;;6.30;99.90;;;;;;5083672;27;20298;-45
2022/04/05 02:01:38;;;;;;;8.67;1.20;;;6.30;99.90;;;;;;5080919;28;20238;-44
2022/04/05 02:04:05;;;;;;;3.83;0.87;;;6.30;99.90;;;;;;5056502;28;20238;-45
2022/04/05 02:06:32;;;;;;;7.57;1.57;;;6.30;99.90;;;;;;5078211;28;20286;-45
2022/04/05 02:08:59;;;;;;;9.83;1.47;;;6.30;99.90;;;;;;5075084;27;20396;-45
2022/04/05 02:11:26;;;;;;;4.63;0.93;;;6.30;99.90;;;;;;5079191;28;20674;-45
2022/04/05 02:13:53;;;;;;;7.13;1.63;;;6.30;99.90;;;;;;5076281;27;20728;-45
2022/04/05 02:16:21;;;;;;;7.83;1.27;;;6.20;99.90;;;;;;5086141;27;20205;-44
2022/04/05 02:18:48;;;;;;;4.83;1.20;;;6.20;99.90;;;;;;5067796;28;20240;-45
2022/04/05 02:21:15;;;;;;;5.83;1.40;;;6.20;99.90;;;;;;5071978;28;20237;-45
2022/04/05 02:23:42;;;;;;;7.33;1.10;;;6.10;99.90;;;;;;5090196;27;20350;-45
2022/04/05 02:26:10;;;;;;;4.57;1.30;;;6.10;99.90;;;;;;5079506;27;20529;-44
2022/04/05 02:28:36;;;;;;;5.80;1.40;;;6.00;99.90;;;;;;5088594;27;20242;-44
2022/04/05 02:31:04;;;;;;;7.73;1.33;;;6.10;99.90;;;;;;5077152;28;20520;-46
2022/04/05 02:33:32;;;;;;;9.67;1.47;;;6.00;99.90;;;;;;5084094;28;20224;-44
2022/04/05 02:35:59;;;;;;;5.50;1.33;;;6.10;99.90;;;;;;5061598;28;20470;-45
2022/04/05 02:38:26;;;;;;;13.30;1.93;;;6.10;99.90;;;;;;5082825;28;20222;-45
2022/04/05 02:40:53;;;;;;;7.87;1.83;;;6.10;99.90;;;;;;5073101;28;20642;-45
2022/04/05 02:43:20;;;;;;;4.47;1.40;;;6.10;99.90;;;;;;5079974;28;20211;-45
2022/04/05 02:45:47;;;;;;;6.70;1.47;;;6.20;99.90;;;;;;5093804;28;20219;-46
2022/04/05 02:48:14;;;;;;;2.97;1.00;;;6.20;99.90;;;;;;5073437;28;20398;-46
2022/04/05 02:50:42;;;;;;;4.33;1.20;;;6.10;99.90;;;;;;5067407;27;20214;-45
2022/04/05 02:53:09;;;;;;;7.70;1.40;;;6.10;99.90;;;;;;5076155;28;20419;-45
2022/04/05 02:55:36;;;;;;;9.23;1.50;;;6.00;99.90;;;;;;5072185;27;20743;-45
2022/04/05 02:58:03;;;;;;;9.80;1.77;;;6.00;99.90;;;;;;5087812;28;20277;-46
2022/04/05 03:00:30;;;;;;;8.70;1.60;;;5.90;99.90;;;;;;5082497;28;23492;-46
2022/04/05 03:02:56;;;;;;;6.37;1.40;;;5.90;99.90;;;;;;5087364;27;20207;-46
2022/04/05 03:05:24;;;;;;;6.27;1.47;;;5.90;99.90;;;;;;5068068;28;20250;-46
2022/04/05 03:07:52;;;;;;;6.33;1.47;;;5.90;99.90;;;;;;5088930;28;20195;-46
2022/04/05 03:10:19;;;;;;;7.37;1.50;;;5.80;99.90;;;;;;5073995;28;20286;-46
2022/04/05 03:12:46;;;;;;;5.00;1.10;;;5.70;99.90;;;;;;5079546;28;20577;-46
2022/04/05 03:15:14;;;;;;;5.97;1.00;;;5.70;99.90;;;;;;5080206;28;23448;-43
2022/04/05 03:17:45;;;;;;;4.83;1.67;;;5.60;99.90;;;;;;5084669;28;20432;-45
2022/04/05 03:20:14;;;;;;;6.50;1.43;;;5.60;99.90;;;;;;5071040;28;20205;-45
2022/04/05 03:22:42;;;;;;;8.97;1.53;;;5.60;99.90;;;;;;5081852;28;20648;-45
2022/04/05 03:25:11;;;;;;;3.43;1.50;;;5.60;99.90;;;;;;5087011;28;20233;-46
2022/04/05 03:27:42;;;;;;;3.53;1.00;;;5.60;99.90;;;;;;5073022;27;20524;-45
2022/04/05 03:30:10;;;;;;;6.30;1.20;;;5.60;99.90;;;;;;5089434;27;20605;-46
2022/04/05 03:32:37;;;;;;;7.13;1.23;;;5.60;99.90;;;;;;5084862;27;20372;-46
2022/04/05 03:35:05;;;;;;;1.90;0.90;;;5.60;99.90;;;;;;5091569;27;20238;-45
2022/04/05 03:37:32;;;;;;;7.00;1.80;;;5.60;99.90;;;;;;5069849;28;20203;-45
2022/04/05 03:39:59;;;;;;;5.00;1.20;;;5.70;99.90;;;;;;5092129;28;20214;-45
2022/04/05 03:42:27;;;;;;;7.47;1.33;;;5.70;99.90;;;;;;5070152;27;20233;-48
2022/04/05 03:44:54;;;;;;;6.10;1.03;;;5.70;99.90;;;;;;5073437;27;20230;-47
2022/04/05 03:47:21;;;;;;;5.93;1.30;;;5.70;99.90;;;;;;5082889;27;20585;-48
2022/04/05 03:49:48;;;;;;;10.47;1.77;;;5.70;99.90;;;;;;5089998;28;20436;-45
2022/04/05 03:52:15;;;;;;;3.30;1.20;;;5.70;99.90;;;;;;5070242;27;20605;-48
2022/04/05 03:54:42;;;;;;;9.37;1.57;;;5.80;99.90;;;;;;5083412;27;21843;-49
2022/04/05 03:57:09;;;;;;;7.87;1.63;;;5.70;99.90;;;;;;5082619;27;20366;-44
2022/04/05 03:59:37;;;;;;;10.03;1.50;;;5.70;99.90;;;;;;5074633;27;20755;-45
2022/04/05 04:02:04;;;;;;;5.10;1.50;;;5.70;99.90;;;;;;5075469;27;20557;-45
2022/04/05 04:04:31;;;;;;;9.43;1.67;;;5.70;99.90;;;;;;5083463;28;20598;-44
2022/04/05 04:06:58;;;;;;;6.20;1.10;;;5.70;99.90;;;;;;5065145;27;20280;-45
2022/04/05 04:09:25;;;;;;;7.33;1.10;;;5.70;99.90;;;;;;5090963;27;20410;-45
2022/04/05 04:11:52;;;;;;;7.50;1.70;;;5.70;99.90;;;;;;5082756;27;20228;-46
2022/04/05 04:14:19;;;;;;;4.43;1.30;;;5.70;99.90;;;;;;5084156;27;20223;-45
2022/04/05 04:16:48;;;;;;;7.63;1.10;;;5.70;99.90;;;;;;5075675;27;20214;-45
2022/04/05 04:19:15;;;;;;;2.63;0.87;;;5.70;99.90;;;;;;5078705;27;20279;-45
2022/04/05 04:21:42;;;;;;;8.03;1.70;;;5.70;99.90;;;;;;5070241;27;20550;-45
2022/04/05 04:24:09;;;;;;;8.10;1.73;;;5.70;99.90;;;;;;5086079;28;20311;-45
2022/04/05 04:26:36;;;;;;;13.53;1.77;;;5.70;99.90;;;;;;5087826;27;20196;-45
2022/04/05 04:29:04;;;;;;;9.53;1.33;;;5.70;99.90;;;;;;5087229;28;20222;-47
2022/04/05 04:31:31;;;;;;;7.37;1.87;;;5.70;99.90;;;;;;5074552;27;20536;-45
2022/04/05 04:34:00;;;;;;;6.73;1.23;;;5.70;99.90;;;;;;5076182;28;20601;-45
2022/04/05 04:36:27;;;;;;;10.97;1.93;;;5.70;99.90;;;;;;5063345;27;20334;-45
2022/04/05 04:38:56;;;;;;;8.43;1.40;;;5.70;99.90;;;;;;5084860;27;20534;-47
2022/04/05 04:41:23;;;;;;;4.80;1.40;;;5.70;99.90;;;;;;5081176;27;20299;-45
2022/04/05 04:43:51;;;;;;;9.37;3.03;;;5.70;99.90;;;;;;5087924;28;25604;-45
2022/04/05 04:46:17;;;;;;;4.83;1.20;;;5.70;99.90;;;;;;5063050;27;20415;-46
2022/04/05 04:48:44;;;;;;;8.07;1.27;;;5.60;99.90;;;;;;5085219;28;20215;-46
2022/04/05 04:51:13;;;;;;;12.90;1.57;;;5.60;99.90;;;;;;5072047;27;20303;-46
2022/04/05 04:53:40;;;;;;;9.63;1.90;;;5.60;99.90;;;;;;5084677;27;20238;-45
2022/04/05 04:56:07;;;;;;;5.97;1.37;;;5.70;99.90;;;;;;5085059;27;20211;-46
2022/04/05 04:58:35;;;;;;;10.63;1.70;;;5.60;99.90;;;;;;5083084;27;20238;-46
2022/04/05 05:01:02;;;;;;;5.53;1.43;;;5.60;99.90;;;;;;5067587;28;20213;-43
2022/04/05 05:03:29;;;;;;;7.60;1.17;;;5.60;99.90;;;;;;5080873;27;20408;-49
2022/04/05 05:05:57;;;;;;;9.33;1.90;;;5.40;99.90;;;;;;5076914;27;20211;-49
2022/04/05 05:08:27;;;;;;;8.57;1.83;;;5.60;99.90;;;;;;5076020;27;20264;-46
2022/04/05 05:10:54;;;;;;;7.30;1.40;;;5.70;99.90;;;;;;5076867;28;20722;-49
2022/04/05 05:13:21;;;;;;;11.83;2.43;;;5.60;99.90;;;;;;5091029;28;20640;-46
2022/04/05 05:15:48;;;;;;;11.40;1.53;;;5.70;99.90;;;;;;5081446;27;20274;-49
2022/04/05 05:18:16;;;;;;;7.27;1.53;;;5.70;99.90;;;;;;5075749;27;20193;-47
2022/04/05 05:20:43;;;;;;;3.90;1.70;;;5.70;99.90;;;;;;5087946;28;20204;-49
2022/04/05 05:23:10;;;;;;;9.73;1.87;;;5.70;99.90;;;;;;5052544;27;20223;-46
2022/04/05 05:25:39;;;;;;;11.70;1.60;;;5.60;99.90;;;;;;5086761;28;20222;-46
2022/04/05 05:28:07;;;;;;;7.97;1.30;;;5.70;99.90;;;;;;5081503;27;20282;-46
2022/04/05 05:30:34;;;;;;;14.37;1.63;;;5.70;99.90;;;;;;5070502;27;20206;-46
2022/04/05 05:33:01;;;;;;;4.13;1.20;;;5.70;99.90;;;;;;5059620;27;20207;-44
2022/04/05 05:35:28;;;;;;;5.10;1.37;;;5.80;99.90;;;;;;5076852;28;20220;-46
2022/04/05 05:37:57;;;;;;;4.43;1.37;;;5.80;99.90;;;;;;5055925;28;20211;-46
2022/04/05 05:40:24;;;;;;;9.53;1.70;;;5.80;99.90;;;;;;5077250;27;20219;-46
2022/04/05 05:42:53;;;;;;;10.00;1.83;;;5.80;99.90;;;;;;5080121;27;20228;-46
2022/04/05 05:45:22;;;;;;;7.93;1.83;;;5.80;99.90;;;;;;5068866;27;20233;-45
2022/04/05 05:47:50;;;;;;;8.33;1.80;;;5.90;99.90;;;;;;5071276;28;20203;-46
2022/04/05 05:50:18;;;;;;;6.90;1.83;;;6.00;99.90;;;;;;5076712;28;20269;-47
2022/04/05 05:52:46;;;;;;;2.80;1.30;;;6.00;99.90;;;;;;5072670;27;20200;-46
2022/04/05 05:55:15;;;;;;;5.53;1.63;;;6.00;99.90;;;;;;5081428;28;20301;-45
2022/04/05 05:57:43;;;;;;;13.50;2.30;;;6.00;99.90;;;;;;5078357;27;20778;-46
2022/04/05 06:00:17;;;;;;;9.07;2.20;;;6.00;99.90;;;;;;5084752;27;20231;-45
2022/04/05 06:02:45;;;;;;;7.70;1.40;;;6.10;99.90;;;;;;5088374;27;20262;-46
2022/04/05 06:05:12;;;;;;;9.17;1.60;;;6.10;99.90;;;;;;5079527;27;20411;-45
2022/04/05 06:07:41;;;;;;;9.90;1.87;;;6.10;99.90;;;;;;5079430;28;20210;-46
2022/04/05 06:10:10;;;;;;;10.60;1.80;;;6.10;99.90;;;;;;5066819;28;20455;-46
2022/04/05 06:12:38;;;;;;;19.03;2.07;;;6.20;99.90;;;;;;5076458;28;20204;-46
2022/04/05 06:15:08;;;;;;;9.80;1.70;;;6.20;99.90;;;;;;5083977;27;20534;-45
2022/04/05 06:17:37;;;;;;;6.83;1.70;;;6.20;99.90;;;;;;5073176;28;20272;-47
2022/04/05 06:20:06;;;;;;;8.17;1.30;;;6.20;99.90;;;;;;5065913;28;20931;-47
2022/04/05 06:22:40;;;;;;;11.90;2.73;;;6.30;99.90;;;;;;5080256;27;20237;-45
2022/04/05 06:25:08;;;;;;;8.03;1.80;;;6.30;99.90;;;;;;5060230;27;20252;-45
2022/04/05 06:27:36;;;;;;;7.67;1.50;;;6.40;99.90;;;;;;5075777;28;20211;-44
2022/04/05 06:30:04;;;;;;;11.87;2.03;;;6.40;99.90;;;;;;5083611;27;20198;-45
2022/04/05 06:32:31;;;;;;;8.27;2.00;;;6.40;99.90;;;;;;5074835;27;20527;-45
2022/04/05 06:34:59;;;;;;;5.27;1.60;;;6.40;99.90;;;;;;5076121;27;20904;-45
2022/04/05 06:37:26;;;;;;;5.27;1.43;;;6.40;99.90;;;;;;5078574;28;20211;-46
2022/04/05 06:39:53;;;;;;;11.17;2.07;;;6.50;99.90;;;;;;5081239;27;20822;-46
2022/04/05 06:42:20;;;;;;;12.33;1.90;;;6.50;99.90;;;;;;5064500;28;20239;-45
2022/04/05 06:44:47;;;;;;;14.30;2.10;;;6.60;99.90;;;;;;5078415;28;20242;-45
2022/04/05 06:47:14;;;;;;;8.27;2.67;;;6.60;99.90;;;;;;5081435;28;20207;-46
2022/04/05 06:49:41;;;;;;;13.57;2.37;;;6.60;99.90;;;;;;5078018;28;20213;-45
2022/04/05 06:52:09;;;;;;;9.17;2.43;;;6.60;99.90;;;;;;5073566;27;20723;-45
2022/04/05 06:54:36;;;;;;;14.57;1.93;;;6.60;99.90;;;;;;5082693;28;20704;-45
2022/04/05 06:57:03;;;;;;;12.77;1.97;;;6.70;99.90;;;;;;5069147;28;20218;-46
2022/04/05 06:59:30;;;;;;;9.07;2.60;;;6.70;99.90;;;;;;5077096;28;20214;-45
2022/04/05 07:01:57;;;;;;;7.33;1.50;;;6.70;99.90;;;;;;5082076;28;20201;-46
2022/04/05 07:04:24;;;;;;;11.77;1.80;;;6.70;99.90;;;;;;5072842;27;20578;-44
2022/04/05 07:06:51;;;;;;;6.17;2.00;;;6.80;99.90;;;;;;5060237;28;20320;-46
2022/04/05 07:09:19;;;;;;;11.00;2.43;;;6.80;99.90;;;;;;5067937;28;20203;-46
2022/04/05 07:11:47;;;;;;;8.13;1.90;;;6.70;99.90;;;;;;5067225;28;20229;-45
2022/04/05 07:14:13;;;;;;;10.77;2.07;;;6.80;99.90;;;;;;5081219;28;20227;-45
2022/04/05 07:16:40;;;;;;;3.83;1.40;;;6.90;99.90;;;;;;5080992;28;23021;-45
2022/04/05 07:19:07;;;;;;;11.47;1.80;;;6.90;99.90;;;;;;5072912;28;20468;-45
2022/04/05 07:21:34;;;;;;;9.80;2.00;;;7.00;99.90;;;;;;5081189;28;20282;-44
2022/04/05 07:24:01;;;;;;;13.77;2.33;;;7.00;99.90;;;;;;5072135;28;20239;-44
2022/04/05 07:26:29;;;;;;;9.33;2.30;;;7.00;99.90;;;;;;5082619;28;20252;-45
2022/04/05 07:28:56;;;;;;;6.10;1.93;;;7.00;99.90;;;;;;5064641;28;20235;-45
2022/04/05 07:31:22;;;;;;;15.87;2.20;;;7.10;99.90;;;;;;5080732;28;20757;-46
2022/04/05 07:33:49;;;;;;;10.47;1.93;;;7.10;99.90;;;;;;5076974;28;20299;-45
2022/04/05 07:36:16;;;;;;;10.30;2.23;;;7.10;99.90;;;;;;5077156;28;20229;-45
2022/04/05 07:38:43;;;;;;;9.17;1.60;;;7.10;99.90;;;;;;5064353;28;20216;-45
2022/04/05 07:41:10;;;;;;;8.47;1.50;;;7.20;99.90;;;;;;5083725;28;20230;-45
2022/04/05 07:43:38;;;;;;;9.53;1.77;;;7.20;99.90;;;;;;5055877;28;20354;-45
2022/04/05 07:46:05;;;;;;;11.07;1.77;;;7.20;99.90;;;;;;5079237;28;20282;-45
2022/04/05 07:48:32;;;;;;;6.93;1.57;;;7.30;99.90;;;;;;5071366;28;20578;-44
2022/04/05 07:51:00;;;;;;;12.97;2.37;;;7.40;99.90;;;;;;5073846;28;20217;-45
2022/04/05 07:53:26;;;;;;;7.30;1.57;;;7.40;99.90;;;;;;5073230;28;20228;-44
2022/04/05 07:55:56;;;;;;;9.60;2.90;;;7.30;99.90;;;;;;5076738;28;20501;-46
2022/04/05 07:58:23;;;;;;;5.60;1.53;;;7.40;99.90;;;;;;5070556;28;20231;-44
2022/04/05 08:00:52;;;;;;;14.70;1.93;;;7.40;99.90;;;;;;5081130;28;20205;-46
2022/04/05 08:03:19;;;;;;;8.00;2.07;;;7.40;99.90;;;;;;5085822;28;20257;-45
2022/04/05 08:05:46;;;;;;;6.23;1.53;;;7.50;99.90;;;;;;5062942;27;20298;-45
2022/04/05 08:08:13;;;;;;;8.07;2.00;;;7.50;99.90;;;;;;5076374;27;20602;-45
2022/04/05 08:10:39;;;;;;;13.97;1.97;;;7.50;99.90;;;;;;5087243;27;20197;-45
2022/04/05 08:13:06;;;;;;;11.57;1.63;;;7.50;99.90;;;;;;5092777;27;20282;-44
2022/04/05 08:15:34;;;;;;;5.87;1.60;;;7.60;99.90;;;;;;5066667;27;20289;-44
2022/04/05 08:18:02;;;;;;;11.67;1.70;;;7.60;99.90;;;;;;5090299;28;20284;-46
2022/04/05 08:20:29;;;;;;;8.83;2.17;;;7.60;99.90;;;;;;5067269;27;20208;-44
2022/04/05 08:22:56;;;;;;;6.10;1.57;;;7.60;99.90;;;;;;5078046;28;20298;-44
2022/04/05 08:25:23;;;;;;;7.00;1.43;;;7.50;99.90;;;;;;5087206;28;20210;-45
2022/04/05 08:27:50;;;;;;;6.13;1.70;;;7.50;99.90;;;;;;5089420;27;20197;-46
2022/04/05 08:30:19;;;;;;;8.47;1.80;;;7.50;99.90;;;;;;5068001;27;20482;-44
2022/04/05 08:32:47;;;;;;;6.00;1.77;;;7.40;99.90;;;;;;5087387;28;20209;-45
2022/04/05 08:35:17;;;;;;;16.90;1.63;;;7.50;99.90;;;;;;5073306;28;20306;-44
2022/04/05 08:37:45;;;;;;;10.33;2.20;;;7.50;99.90;;;;;;5077371;28;20213;-45
2022/04/05 08:40:13;;;;;;;9.03;1.77;;;7.50;99.90;;;;;;5079834;27;20474;-45
2022/04/05 08:42:42;;;;;;;5.93;1.27;;;7.60;99.90;;;;;;5085915;28;20300;-45
2022/04/05 08:45:11;;;;;;;8.80;2.37;;;7.60;99.90;;;;;;5092052;28;20227;-45
2022/04/05 08:47:41;;;;;;;7.30;1.73;;;7.60;99.90;;;;;;5066976;27;20214;-44
2022/04/05 08:50:10;;;;;;;5.43;1.77;;;7.70;99.90;;;;;;5066351;28;20456;-46
2022/04/05 08:52:38;;;;;;;7.07;1.67;;;7.60;99.90;;;;;;5077169;28;20210;-46
2022/04/05 08:55:06;;;;;;;5.67;2.10;;;7.60;99.90;;;;;;5065595;28;20241;-45
2022/04/05 08:57:33;;;;;;;8.40;1.90;;;7.60;99.90;;;;;;5093700;27;20808;-44
2022/04/05 09:00:02;;;;;;;12.47;2.00;;;7.70;99.90;;;;;;5089108;28;20784;-46
2022/04/05 09:02:29;;;;;;;9.20;1.27;;;7.70;99.90;;;;;;5059542;27;20219;-44
2022/04/05 09:04:57;;;;;;;7.37;1.13;;;7.70;99.90;;;;;;5091969;27;20233;-45
2022/04/05 09:07:26;;;;;;;16.57;1.43;;;7.70;99.90;;;;;;5069313;28;20279;-45
2022/04/05 09:10:15;;;;;;;9.27;1.90;;;7.60;99.90;;;;;;5087237;27;20254;-46
2022/04/05 09:12:44;;;;;;;3.77;1.50;;;7.70;99.90;;;;;;5091884;28;20266;-45
2022/04/05 09:15:24;;;;;;;6.73;1.60;;;7.80;99.90;;;;;;5093005;28;20256;-46
2022/04/05 09:17:52;;;;;;;8.37;1.80;;;7.80;99.90;;;;;;5065636;27;20207;-45
2022/04/05 09:20:20;;;;;;;10.50;1.70;;;7.80;99.90;;;;;;5090705;27;20223;-46
2022/04/05 09:22:48;;;;;;;13.63;1.73;;;7.90;99.90;;;;;;5082536;27;20204;-45
2022/04/05 09:25:17;;;;;;;6.50;1.20;;;8.00;99.90;;;;;;5090477;27;20224;-47
2022/04/05 09:27:50;;;;;;;10.47;2.00;;;8.10;99.90;;;;;;5081245;27;20207;-46
2022/04/05 09:30:19;;;;;;;4.80;1.37;;;8.10;99.90;;;;;;5090310;27;20207;-46
2022/04/05 09:32:48;;;;;;;7.27;1.80;;;8.10;99.90;;;;;;5090039;27;20227;-45
2022/04/05 09:35:16;;;;;;;10.70;2.50;;;8.20;99.90;;;;;;5077931;27;20430;-46
2022/04/05 09:37:43;;;;;;;12.53;2.53;;;8.20;99.90;;;;;;5075325;27;20199;-46
2022/04/05 09:40:22;;;;;;;10.97;1.57;;;8.20;99.90;;;;;;5089528;27;20199;-45
2022/04/05 09:43:00;;;;;;;6.10;1.70;;;8.20;99.90;;;;;;5080303;28;20198;-45
2022/04/05 09:45:46;;;;;;;7.73;1.67;;;8.20;99.90;;;;;;5091429;27;20294;-47
2022/04/05 09:48:14;;;;;;;7.37;1.70;;;8.20;99.90;;;;;;5101190;27;20230;-45
2022/04/05 09:51:02;;;;;;;10.07;2.10;;;8.10;99.90;;;;;;5076068;27;20195;-45
2022/04/05 09:53:31;;;;;;;7.80;1.97;;;8.20;99.90;;;;;;5078873;27;20300;-46
2022/04/05 09:56:08;;;;;;;3.87;1.50;;;8.20;99.90;;;;;;5081687;27;20554;-45
2022/04/05 09:58:35;;;;;;;8.77;2.40;;;8.20;99.90;;;;;;5088517;28;20208;-45
2022/04/05 10:01:10;;;;;;;6.10;1.30;;;8.20;99.90;;;;;;5090362;27;20557;-45
2022/04/05 10:03:37;;;;;;;6.00;1.90;;;8.10;99.90;;;;;;5070261;28;20336;-46
2022/04/05 10:06:05;;;;;;;6.13;1.77;;;8.00;99.90;;;;;;5088428;28;20242;-46
2022/04/05 10:08:33;;;;;;;6.00;1.53;;;8.00;99.90;;;;;;5089774;27;20270;-46
2022/04/05 10:11:00;;;;;;;7.63;1.67;;;8.00;99.90;;;;;;5074483;28;20223;-46
2022/04/05 10:13:30;;;;;;;7.90;1.60;;;8.10;99.90;;;;;;5097106;28;20224;-45
2022/04/05 10:15:58;;;;;;;7.87;2.63;;;8.10;99.90;;;;;;5078659;28;20221;-46
2022/04/05 10:18:31;;;;;;;9.90;1.90;;;8.10;99.90;;;;;;5097616;28;20958;-46
2022/04/05 10:20:59;;;;;;;7.63;1.70;;;8.20;99.90;;;;;;5080846;27;20219;-46
2022/04/05 10:23:26;;;;;;;6.70;1.70;;;8.20;99.90;;;;;;5086260;27;21668;-45
2022/04/05 10:25:54;;;;;;;9.77;2.37;;;8.20;99.90;;;;;;5089858;28;20310;-46
2022/04/05 10:28:25;;;;;;;7.47;1.57;;;8.40;99.90;;;;;;5076688;27;20514;-45
2022/04/05 10:31:01;;;;;;;6.07;1.67;;;8.40;99.90;;;;;;5095569;28;20257;-46
2022/04/05 10:33:38;;;;;;;6.57;1.40;;;8.40;99.90;;;;;;5094193;27;20306;-46
2022/04/05 10:36:05;;;;;;;8.13;1.30;;;8.50;99.90;;;;;;5061663;28;20211;-46
2022/04/05 10:38:32;;;;;;;10.27;1.70;;;8.50;99.90;;;;;;5092362;28;20210;-45
2022/04/05 10:41:17;;;;;;;6.73;1.63;;;8.40;99.90;;;;;;5064383;27;20208;-46
2022/04/05 10:43:45;;;;;;;9.50;1.60;;;8.30;99.90;;;;;;5091199;28;20223;-45
2022/04/05 10:46:14;;;;;;;9.83;1.60;;;8.40;99.90;;;;;;5059392;28;20233;-45
2022/04/05 10:48:56;;;;;;;6.13;1.67;;;8.30;99.90;;;;;;5085252;27;20214;-45
2022/04/05 10:51:31;;;;;;;5.77;1.40;;;8.40;99.90;;;;;;5072788;28;21051;-45
2022/04/05 10:54:19;;;;;;;5.20;1.63;;;8.40;99.90;;;;;;5069424;27;20234;-46
2022/04/05 10:57:20;;;;;;;2.47;1.40;;;8.30;99.90;;;;;;5079384;27;20207;-47
2022/04/05 10:59:49;;;;;;;6.80;2.03;;;8.40;99.90;;;;;;5072256;28;20212;-49
2022/04/05 11:02:32;;;;;;;8.00;1.80;;;8.30;99.90;;;;;;5075012;28;20212;-45
2022/04/05 11:05:31;;;;;;;6.67;1.67;;;8.20;99.90;;;;;;5070350;28;20223;-45
2022/04/05 11:08:03;;;;;;;7.37;1.57;;;8.20;99.90;;;;;;5069023;28;20211;-44
2022/04/05 11:10:32;;;;;;;8.90;1.73;;;8.10;99.90;;;;;;5087897;28;20285;-45
2022/04/05 11:13:06;;;;;;;5.17;1.67;;;8.20;99.90;;;;;;5067419;28;20211;-46
2022/04/05 11:15:41;;;;;;;4.53;1.33;;;8.20;99.90;;;;;;5086021;28;20441;-45
2022/04/05 11:18:10;;;;;;;5.77;1.90;;;8.30;99.90;;;;;;5079838;28;20208;-46
2022/04/05 11:20:41;;;;;;;7.03;1.80;;;8.40;99.90;;;;;;5081541;28;20210;-45
2022/04/05 11:23:08;;;;;;;6.37;1.53;;;8.40;99.90;;;;;;5076984;28;20234;-45
2022/04/05 11:25:36;;;;;;;4.80;2.00;;;8.50;99.90;;;;;;5075748;28;20419;-45
2022/04/05 11:28:14;;;;;;;8.17;1.83;;;8.60;99.90;;;;;;5080212;28;20196;-46
2022/04/05 11:30:47;;;;;;;9.27;1.63;;;8.60;99.90;;;;;;5088743;28;20274;-48
2022/04/05 11:33:22;;;;;;;6.83;1.97;;;8.50;99.90;;;;;;5067247;28;20238;-44
2022/04/05 11:35:50;;;;;;;7.70;2.23;;;8.60;99.90;;;;;;5072139;28;20238;-46
2022/04/05 11:38:28;;;;;;;5.70;2.10;;;8.50;99.90;;;;;;5079737;28;20218;-45
2022/04/05 11:41:00;;;;;;;5.20;1.80;;;8.50;99.90;;;;;;5080274;28;20209;-46
2022/04/05 11:43:28;;;;;;;6.60;2.03;;;8.50;99.90;;;;;;5083811;28;20233;-45
2022/04/05 11:45:57;;;;;;;4.43;1.87;;;8.50;99.90;;;;;;5077221;27;20214;-45
2022/04/05 11:48:27;;;;;;;8.77;1.80;;;8.40;99.90;;;;;;5087586;27;20215;-50
2022/04/05 11:50:56;;;;;;;2.93;1.80;;;8.50;99.90;;;;;;5073041;27;20215;-46
2022/04/05 11:53:25;;;;;;;7.73;2.20;;;8.60;99.90;;;;;;5078982;27;20542;-46
2022/04/05 11:56:13;;;;;;;4.93;2.40;;;8.70;99.90;;;;;;5088502;27;22523;-46
2022/04/05 11:58:42;;;;;;;7.53;2.50;;;8.80;99.90;;;;;;5088279;27;21194;-46
2022/04/05 12:01:11;;;;;;;5.90;2.50;;;9.00;99.90;;;;;;5079561;27;20449;-44
2022/04/05 12:03:47;;;;;;;5.20;2.67;;;8.90;99.90;;;;;;5083741;27;20307;-46
2022/04/05 12:06:17;;;;;;;5.10;2.67;;;9.00;99.90;;;;;;5070041;27;20301;-45
2022/04/05 12:08:45;;;;;;;4.37;2.40;;;9.00;99.90;;;;;;5078306;27;20212;-45
2022/04/05 12:11:12;;;;;;;6.73;3.00;;;9.20;99.90;;;;;;5087653;27;20288;-45
2022/04/05 12:13:39;;;;;;;4.47;2.13;;;9.10;99.90;;;;;;5098666;27;20290;-46
2022/04/05 12:16:07;;;;;;;4.73;2.63;;;9.00;99.90;;;;;;5082759;27;20214;-44
2022/04/05 12:18:34;;;;;;;4.27;2.40;;;8.80;99.90;;;;;;5076993;27;20215;-44
2022/04/05 12:21:05;;;;;;;9.80;2.80;;;8.70;99.90;;;;;;5087686;27;20199;-45
2022/04/05 12:23:34;;;;;;;5.40;2.53;;;8.80;99.90;;;;;;5058898;27;20226;-45
2022/04/05 12:26:10;;;;;;;4.77;2.47;;;8.60;99.90;;;;;;5080766;27;20519;-44
2022/04/05 12:28:38;;;;;;;9.07;2.87;;;8.70;99.90;;;;;;5091626;27;20234;-46
2022/04/05 12:31:09;;;;;;;5.07;2.60;;;8.70;99.90;;;;;;5080909;27;20585;-46
2022/04/05 12:33:36;;;;;;;4.23;2.43;;;8.60;99.90;;;;;;5097419;27;20259;-47
2022/04/05 12:36:06;;;;;;;8.03;2.47;;;8.60;99.90;;;;;;5088022;27;20596;-45
2022/04/05 12:38:34;;;;;;;7.73;2.17;;;8.50;99.90;;;;;;5058314;27;20376;-47
2022/04/05 12:41:02;;;;;;;3.73;2.50;;;8.50;99.90;;;;;;5082749;27;20222;-47
2022/04/05 12:43:29;;;;;;;4.77;2.63;;;8.50;99.90;;;;;;5084869;27;20228;-48
2022/04/05 12:45:56;;;;;;;8.23;3.20;;;8.50;99.90;;;;;;5082055;27;20325;-45
2022/04/05 12:48:23;;;;;;;4.93;2.50;;;8.50;99.90;;;;;;5097768;27;21749;-46
2022/04/05 12:50:52;;;;;;;6.37;2.67;;;8.50;99.90;;;;;;5081736;28;20317;-46
2022/04/05 12:53:28;;;;;;;5.87;3.40;;;8.50;99.90;;;;;;5072288;27;20211;-46
2022/04/05 12:55:59;;;;;;;5.47;2.87;;;8.60;99.90;;;;;;5074711;27;20937;-45
2022/04/05 12:58:37;;;;;;;5.03;2.33;;;8.50;99.90;;;;;;5078105;27;20248;-45
2022/04/05 13:01:23;;;;;;;3.73;2.07;;;8.40;99.90;;;;;;5087877;27;20300;-45
2022/04/05 13:03:50;;;;;;;7.70;1.93;;;8.30;99.90;;;;;;5082321;27;22849;-45